Time;durP1;ratioP1;P1;durP2;ratioP2;P2;SDS_P1;SDS_P2;PMS_P1;PMS_P2;Temp;Humidity;BMP_temperature;BMP_pressure;BME280_temperature;BME280_humidity;BME280_pressure;Samples;Min_cycle;Max_cycle;Signal;HPM_P1;HPM_P2
2022/10/12 00:00:55;;;;;;;3.67;2.50;;;9.50;99.90;;;;;;5013922;28;20295;-59
2022/10/12 00:03:23;;;;;;;4.73;2.33;;;9.50;99.90;;;;;;5018738;28;20232;-58
2022/10/12 00:06:03;;;;;;;6.63;2.67;;;9.60;99.90;;;;;;5017287;28;20712;-58
2022/10/12 00:08:31;;;;;;;6.33;2.70;;;9.60;99.90;;;;;;5019281;28;20233;-58
2022/10/12 00:11:00;;;;;;;6.17;2.70;;;9.60;99.90;;;;;;5014007;28;20682;-58
2022/10/12 00:13:28;;;;;;;3.80;2.60;;;9.60;99.90;;;;;;5014502;28;20226;-58
2022/10/12 00:15:56;;;;;;;4.73;2.60;;;9.60;99.90;;;;;;5014303;28;20690;-58
2022/10/12 00:18:24;;;;;;;4.37;2.50;;;9.60;99.90;;;;;;5019026;28;20708;-59
2022/10/12 00:21:02;;;;;;;6.00;2.33;;;9.60;99.90;;;;;;5013820;28;20230;-58
2022/10/12 00:23:30;;;;;;;4.73;2.90;;;9.60;99.90;;;;;;5013625;28;20690;-59
2022/10/12 00:26:01;;;;;;;3.80;2.60;;;9.60;99.90;;;;;;5013241;28;20233;-58
2022/10/12 00:28:30;;;;;;;5.90;3.10;;;9.60;99.90;;;;;;5008137;28;20242;-58
2022/10/12 00:30:58;;;;;;;3.87;2.67;;;9.70;99.90;;;;;;5013443;28;20269;-58
2022/10/12 00:33:27;;;;;;;4.97;2.87;;;9.70;99.90;;;;;;5016253;28;20256;-58
2022/10/12 00:35:55;;;;;;;6.87;3.10;;;9.70;99.90;;;;;;5015612;28;20251;-59
2022/10/12 00:38:25;;;;;;;3.97;2.70;;;9.80;99.90;;;;;;5012903;28;20621;-59
2022/10/12 00:40:53;;;;;;;4.67;2.70;;;9.80;99.90;;;;;;5013267;28;20226;-59
2022/10/12 00:43:30;;;;;;;4.67;3.03;;;9.90;99.90;;;;;;5014002;28;20292;-59
2022/10/12 00:46:01;;;;;;;5.43;2.77;;;9.90;99.90;;;;;;5015272;28;20733;-59
2022/10/12 00:48:29;;;;;;;6.37;3.10;;;9.90;99.90;;;;;;5017798;28;20229;-58
2022/10/12 00:51:01;;;;;;;7.87;3.57;;;9.90;99.90;;;;;;5012934;28;20627;-59
2022/10/12 00:53:36;;;;;;;4.10;2.93;;;9.90;99.90;;;;;;5013386;28;20245;-59
2022/10/12 00:56:09;;;;;;;6.53;3.07;;;10.00;99.90;;;;;;5014183;28;20925;-59
2022/10/12 00:58:38;;;;;;;4.07;2.90;;;10.00;99.90;;;;;;5017898;28;20759;-59
2022/10/12 01:01:07;;;;;;;5.60;3.20;;;10.00;99.90;;;;;;5012993;28;20239;-58
2022/10/12 01:03:36;;;;;;;4.97;2.77;;;10.00;99.90;;;;;;5013516;28;20228;-58
2022/10/12 01:06:06;;;;;;;5.53;2.93;;;10.00;99.90;;;;;;5014828;28;20697;-59
2022/10/12 01:08:37;;;;;;;5.00;3.17;;;10.00;99.90;;;;;;5017527;28;20252;-58
2022/10/12 01:11:05;;;;;;;6.33;3.50;;;10.10;99.90;;;;;;5013427;28;20277;-58
2022/10/12 01:13:33;;;;;;;5.37;3.30;;;10.00;99.90;;;;;;5013388;28;20686;-59
2022/10/12 01:16:08;;;;;;;5.10;2.70;;;10.00;99.90;;;;;;5012806;28;20621;-58
2022/10/12 01:18:44;;;;;;;4.77;3.13;;;10.00;99.90;;;;;;5013066;28;20227;-58
2022/10/12 01:21:18;;;;;;;6.57;3.00;;;10.20;99.90;;;;;;4993964;28;20229;-59
2022/10/12 01:24:15;;;;;;;6.30;3.27;;;10.20;99.90;;;;;;4993877;28;20602;-58
2022/10/12 01:27:03;;;;;;;5.80;3.00;;;10.20;99.90;;;;;;5019231;28;20224;-59
2022/10/12 01:30:02;;;;;;;7.67;3.40;;;10.10;99.90;;;;;;5007815;28;20636;-58
2022/10/12 01:32:39;;;;;;;7.73;3.40;;;10.10;99.90;;;;;;5006948;28;20296;-58
2022/10/12 01:35:11;;;;;;;3.60;2.90;;;10.20;99.90;;;;;;5013418;28;20236;-58
2022/10/12 01:37:46;;;;;;;7.03;3.50;;;10.20;99.90;;;;;;5022312;28;20245;-59
2022/10/12 01:40:20;;;;;;;7.00;3.30;;;10.20;99.90;;;;;;5009233;28;20228;-59
2022/10/12 01:42:48;;;;;;;5.47;3.20;;;10.20;99.90;;;;;;5016314;28;20279;-59
2022/10/12 01:45:18;;;;;;;6.47;3.70;;;10.30;99.90;;;;;;5016422;28;20234;-59
2022/10/12 01:47:51;;;;;;;5.57;3.40;;;10.30;99.90;;;;;;5022083;28;20673;-59
2022/10/12 01:50:21;;;;;;;8.07;3.73;;;10.30;99.90;;;;;;5016380;28;20755;-59
2022/10/12 01:52:58;;;;;;;7.90;3.40;;;10.30;99.90;;;;;;5016464;28;20588;-59
2022/10/12 01:55:37;;;;;;;6.60;3.90;;;10.30;99.90;;;;;;5021371;28;20229;-58
2022/10/12 01:58:37;;;;;;;5.10;3.40;;;10.40;99.90;;;;;;5021142;28;20737;-59
2022/10/12 02:01:13;;;;;;;9.90;4.13;;;10.30;99.90;;;;;;5011433;28;20244;-59
2022/10/12 02:03:50;;;;;;;9.53;4.03;;;10.30;99.90;;;;;;5016292;28;20234;-59
2022/10/12 02:06:20;;;;;;;7.00;3.93;;;10.30;99.90;;;;;;5015902;28;20227;-59
2022/10/12 02:08:56;;;;;;;7.13;3.87;;;10.40;99.90;;;;;;5015373;28;20237;-58
2022/10/12 02:11:26;;;;;;;9.37;3.80;;;10.40;99.90;;;;;;5015876;28;20220;-59
2022/10/12 02:13:59;;;;;;;7.00;3.80;;;10.40;99.90;;;;;;5016354;28;20679;-58
2022/10/12 02:16:31;;;;;;;10.00;3.83;;;10.40;99.90;;;;;;5019505;28;20315;-58
2022/10/12 02:19:04;;;;;;;9.13;3.87;;;10.40;99.90;;;;;;5016913;28;20230;-59
2022/10/12 02:21:34;;;;;;;10.57;3.90;;;10.40;99.90;;;;;;5015801;28;20222;-59
2022/10/12 02:24:06;;;;;;;8.17;3.53;;;10.40;99.90;;;;;;5016039;28;20231;-58
2022/10/12 02:26:37;;;;;;;7.57;3.63;;;10.40;99.90;;;;;;5022962;28;20224;-58
2022/10/12 02:29:10;;;;;;;8.17;3.90;;;10.40;99.90;;;;;;5015701;28;20261;-59
2022/10/12 02:31:45;;;;;;;10.70;4.07;;;10.40;99.90;;;;;;5015295;28;20718;-59
2022/10/12 02:34:18;;;;;;;8.30;3.70;;;10.40;99.90;;;;;;5015757;28;20229;-59
2022/10/12 02:36:51;;;;;;;9.13;4.27;;;10.40;99.90;;;;;;5020497;28;20229;-59
2022/10/12 02:39:23;;;;;;;10.07;4.20;;;10.40;99.90;;;;;;5008208;28;20685;-59
2022/10/12 02:41:55;;;;;;;7.57;3.70;;;10.40;99.90;;;;;;5015311;28;20223;-59
2022/10/12 02:44:27;;;;;;;8.87;3.83;;;10.40;99.90;;;;;;5015861;28;20230;-59
2022/10/12 02:46:57;;;;;;;9.67;4.13;;;10.40;99.90;;;;;;5020671;28;20227;-59
2022/10/12 02:49:29;;;;;;;9.93;4.13;;;10.40;99.90;;;;;;5014770;28;20226;-59
2022/10/12 02:51:58;;;;;;;10.57;3.80;;;10.40;99.90;;;;;;4995635;28;20704;-59
2022/10/12 02:54:26;;;;;;;10.70;4.20;;;10.50;99.90;;;;;;4995055;28;20235;-59
2022/10/12 02:56:54;;;;;;;8.50;3.83;;;10.50;99.90;;;;;;5012119;28;20226;-58
2022/10/12 02:59:22;;;;;;;8.60;3.93;;;10.50;99.90;;;;;;5014793;28;20229;-58
2022/10/12 03:01:51;;;;;;;12.03;3.80;;;10.40;99.90;;;;;;5014471;28;20238;-59
2022/10/12 03:04:19;;;;;;;11.57;4.30;;;10.40;99.90;;;;;;5014923;28;20253;-59
2022/10/12 03:06:48;;;;;;;9.17;3.70;;;10.40;99.90;;;;;;5020863;28;20624;-59
2022/10/12 03:09:16;;;;;;;13.67;4.27;;;10.40;99.90;;;;;;5007820;28;20238;-58
2022/10/12 03:11:44;;;;;;;8.40;4.17;;;10.30;99.90;;;;;;5014983;28;20289;-59
2022/10/12 03:14:13;;;;;;;9.97;4.20;;;10.30;99.90;;;;;;5014709;28;20624;-59
2022/10/12 03:16:42;;;;;;;10.37;3.90;;;10.20;99.90;;;;;;5022561;28;20279;-58
2022/10/12 03:19:10;;;;;;;9.93;4.07;;;10.20;99.90;;;;;;5015049;28;20226;-58
2022/10/12 03:21:38;;;;;;;8.60;3.60;;;10.20;99.90;;;;;;5015081;28;20251;-59
2022/10/12 03:24:08;;;;;;;8.40;4.00;;;10.20;99.90;;;;;;5015094;28;20234;-59
2022/10/12 03:26:36;;;;;;;8.67;3.33;;;10.10;99.90;;;;;;5020240;28;20231;-59
2022/10/12 03:29:04;;;;;;;9.47;4.07;;;10.10;99.90;;;;;;5014721;28;20712;-58
2022/10/12 03:31:32;;;;;;;6.57;3.43;;;10.10;99.90;;;;;;5014419;28;20728;-59
2022/10/12 03:34:00;;;;;;;9.33;3.43;;;10.10;99.90;;;;;;5015202;28;20232;-59
2022/10/12 03:36:28;;;;;;;8.63;3.50;;;10.00;99.90;;;;;;5017948;28;20229;-59
2022/10/12 03:38:57;;;;;;;7.17;3.23;;;10.00;99.90;;;;;;5019010;28;20275;-58
2022/10/12 03:41:26;;;;;;;5.67;3.47;;;9.90;99.90;;;;;;5024888;28;20242;-58
2022/10/12 03:43:54;;;;;;;6.00;3.27;;;9.90;99.90;;;;;;5015397;28;20758;-59
2022/10/12 03:46:22;;;;;;;11.33;3.37;;;9.90;99.90;;;;;;5024388;28;20217;-58
2022/10/12 03:48:50;;;;;;;9.07;3.27;;;9.90;99.90;;;;;;5022256;28;20225;-59
2022/10/12 03:51:18;;;;;;;11.07;3.67;;;9.90;99.90;;;;;;5015962;28;20713;-59
2022/10/12 03:53:46;;;;;;;9.13;3.53;;;9.80;99.90;;;;;;5015878;28;20590;-58
2022/10/12 03:56:14;;;;;;;6.47;3.27;;;9.90;99.90;;;;;;5017084;28;20228;-58
2022/10/12 03:58:43;;;;;;;7.17;3.40;;;9.80;99.90;;;;;;5014767;28;20685;-58
2022/10/12 04:01:11;;;;;;;10.17;4.10;;;9.80;99.90;;;;;;5015500;28;20238;-58
2022/10/12 04:03:40;;;;;;;9.03;3.40;;;9.80;99.90;;;;;;5015617;28;20247;-59
2022/10/12 04:06:08;;;;;;;8.47;3.33;;;9.80;99.90;;;;;;5016580;28;20316;-58
2022/10/12 04:08:36;;;;;;;8.00;3.37;;;9.70;99.90;;;;;;5019956;28;20226;-58
2022/10/12 04:11:07;;;;;;;5.27;3.20;;;9.70;99.90;;;;;;5015053;28;20253;-58
2022/10/12 04:13:35;;;;;;;8.13;3.03;;;9.60;99.90;;;;;;5016982;28;20567;-56
2022/10/12 04:16:06;;;;;;;9.82;3.60;;;9.60;99.90;;;;;;5014934;28;20944;-56
2022/10/12 04:18:34;;;;;;;9.87;3.00;;;9.60;99.90;;;;;;5015049;28;20689;-56
2022/10/12 04:21:04;;;;;;;6.13;3.20;;;9.60;99.90;;;;;;5014950;28;20689;-57
2022/10/12 04:23:32;;;;;;;8.67;3.20;;;9.50;99.90;;;;;;5015815;28;20716;-57
2022/10/12 04:26:00;;;;;;;5.70;2.87;;;9.50;99.90;;;;;;5015581;28;20704;-57
2022/10/12 04:28:28;;;;;;;5.90;2.90;;;9.50;99.90;;;;;;5015845;28;20248;-57
2022/10/12 04:30:56;;;;;;;8.20;3.20;;;9.50;99.90;;;;;;5014630;28;20237;-57
2022/10/12 04:33:26;;;;;;;6.07;3.43;;;9.50;99.90;;;;;;5015503;28;20235;-56
2022/10/12 04:35:54;;;;;;;6.47;3.07;;;9.40;99.90;;;;;;5015027;28;20225;-56
2022/10/12 04:38:22;;;;;;;6.63;3.23;;;9.50;99.90;;;;;;5014388;28;20690;-57
2022/10/12 04:40:50;;;;;;;8.00;3.40;;;9.50;99.90;;;;;;5014653;28;20230;-57
2022/10/12 04:43:18;;;;;;;8.27;3.50;;;9.40;99.90;;;;;;5015199;28;20240;-56
2022/10/12 04:45:54;;;;;;;9.57;3.20;;;9.40;99.90;;;;;;5014474;28;20263;-56
2022/10/12 04:48:22;;;;;;;6.97;2.90;;;9.40;99.90;;;;;;5016227;28;20558;-57
2022/10/12 04:50:52;;;;;;;9.47;3.20;;;9.30;99.90;;;;;;5015605;28;20235;-57
2022/10/12 04:53:20;;;;;;;6.83;3.17;;;9.30;99.90;;;;;;5015682;28;20233;-57
2022/10/12 04:55:48;;;;;;;7.40;2.90;;;9.30;99.90;;;;;;5015296;28;20228;-57
2022/10/12 04:58:16;;;;;;;5.90;2.80;;;9.20;99.90;;;;;;5015307;28;20275;-57
2022/10/12 05:00:45;;;;;;;5.97;3.07;;;9.20;99.90;;;;;;5014421;28;20241;-57
2022/10/12 05:03:13;;;;;;;9.07;2.83;;;9.10;99.90;;;;;;5014690;28;20222;-57
2022/10/12 05:05:41;;;;;;;8.13;3.10;;;9.10;99.90;;;;;;5014355;28;20222;-56
2022/10/12 05:08:11;;;;;;;7.50;3.30;;;9.10;99.90;;;;;;5014221;28;20276;-57
2022/10/12 05:10:39;;;;;;;7.17;3.23;;;9.10;99.90;;;;;;5016044;28;20594;-57
2022/10/12 05:13:08;;;;;;;7.40;2.63;;;9.10;99.90;;;;;;5018249;28;20226;-57
2022/10/12 05:15:36;;;;;;;7.00;2.80;;;9.10;99.90;;;;;;5018043;28;20227;-56
2022/10/12 05:18:04;;;;;;;6.13;2.93;;;9.10;99.90;;;;;;5020436;28;20751;-57
2022/10/12 05:20:32;;;;;;;7.70;3.00;;;9.10;99.90;;;;;;5017841;28;20236;-57
2022/10/12 05:23:00;;;;;;;7.40;3.57;;;9.10;99.90;;;;;;5017913;28;20747;-56
2022/10/12 05:25:29;;;;;;;6.23;3.50;;;9.10;99.90;;;;;;5017997;28;20681;-56
2022/10/12 05:27:58;;;;;;;10.77;3.70;;;9.10;99.90;;;;;;5022588;28;20241;-56
2022/10/12 05:30:26;;;;;;;10.00;3.30;;;9.10;99.90;;;;;;5017157;28;20686;-56
2022/10/12 05:32:54;;;;;;;9.07;3.30;;;9.10;99.90;;;;;;5017578;28;20731;-56
2022/10/12 05:35:22;;;;;;;8.10;3.97;;;9.10;99.90;;;;;;5017262;28;20236;-57
2022/10/12 05:37:50;;;;;;;7.13;3.40;;;9.10;99.90;;;;;;5020956;28;20705;-56
2022/10/12 05:40:18;;;;;;;7.77;3.60;;;9.10;99.90;;;;;;5017171;28;20221;-56
2022/10/12 05:42:48;;;;;;;10.67;3.63;;;9.10;99.90;;;;;;5016743;28;20232;-56
2022/10/12 05:45:16;;;;;;;7.93;3.07;;;9.00;99.90;;;;;;5017419;28;20617;-57
2022/10/12 05:47:44;;;;;;;8.03;3.77;;;9.10;99.90;;;;;;5020282;28;20222;-55
2022/10/12 05:50:12;;;;;;;8.63;3.90;;;9.10;99.90;;;;;;5025851;28;20229;-56
2022/10/12 05:52:40;;;;;;;9.93;3.40;;;9.00;99.90;;;;;;5036810;28;20217;-56
2022/10/12 05:55:09;;;;;;;11.30;3.63;;;9.00;99.90;;;;;;5036548;28;20233;-56
2022/10/12 05:57:37;;;;;;;8.10;3.10;;;9.10;99.90;;;;;;5021136;28;20225;-57
2022/10/12 06:00:09;;;;;;;9.27;3.60;;;9.00;99.90;;;;;;5016488;28;20242;-56
2022/10/12 06:02:37;;;;;;;9.93;3.40;;;9.00;99.90;;;;;;5016292;28;20264;-56
2022/10/12 06:05:06;;;;;;;9.40;3.70;;;9.00;99.90;;;;;;5019862;28;20276;-57
2022/10/12 06:07:34;;;;;;;9.60;3.40;;;9.00;99.90;;;;;;5014217;28;20251;-56
2022/10/12 06:10:02;;;;;;;10.40;3.50;;;9.10;99.90;;;;;;5019425;28;20233;-57
2022/10/12 06:12:30;;;;;;;7.40;3.00;;;9.00;99.90;;;;;;5024598;28;20692;-56
2022/10/12 06:14:58;;;;;;;7.63;3.33;;;9.10;99.90;;;;;;5036572;28;20245;-56
2022/10/12 06:17:28;;;;;;;10.63;3.83;;;9.00;99.90;;;;;;5018819;28;20585;-56
2022/10/12 06:19:56;;;;;;;6.83;3.50;;;9.00;99.90;;;;;;5025626;28;20230;-57
2022/10/12 06:22:24;;;;;;;9.03;3.40;;;9.10;99.90;;;;;;5021372;28;20228;-56
2022/10/12 06:24:52;;;;;;;8.30;3.20;;;9.10;99.90;;;;;;5016365;28;20229;-56
2022/10/12 06:27:20;;;;;;;8.80;3.10;;;9.20;99.90;;;;;;5021010;28;20236;-57
2022/10/12 06:29:48;;;;;;;5.70;3.60;;;9.20;99.90;;;;;;5016364;28;20605;-56
2022/10/12 06:32:16;;;;;;;10.20;3.43;;;9.20;99.90;;;;;;5015609;28;20237;-56
2022/10/12 06:34:45;;;;;;;10.43;3.63;;;9.30;99.90;;;;;;5015461;28;20279;-57
2022/10/12 06:37:13;;;;;;;12.43;3.80;;;9.30;99.90;;;;;;5016735;28;20689;-57
2022/10/12 06:40:01;;;;;;;12.37;3.97;;;9.40;99.90;;;;;;5014297;28;20265;-56
2022/10/12 06:42:29;;;;;;;9.03;3.23;;;9.40;99.90;;;;;;5015123;28;20712;-56
2022/10/12 06:44:57;;;;;;;8.43;3.33;;;9.40;99.90;;;;;;5015228;28;20233;-56
2022/10/12 06:47:25;;;;;;;6.37;3.20;;;9.50;99.90;;;;;;5018297;28;20233;-56
2022/10/12 06:49:55;;;;;;;9.07;3.90;;;9.60;99.90;;;;;;5012914;28;20232;-56
2022/10/12 06:52:23;;;;;;;11.17;3.87;;;9.60;99.90;;;;;;5014709;28;20708;-56
2022/10/12 06:54:51;;;;;;;10.27;3.60;;;9.60;99.90;;;;;;5014627;28;20233;-56
2022/10/12 06:57:19;;;;;;;11.57;3.80;;;9.70;99.90;;;;;;5018371;28;20574;-56
2022/10/12 06:59:47;;;;;;;12.07;3.70;;;9.70;99.90;;;;;;5014790;28;20250;-57
2022/10/12 07:02:15;;;;;;;6.87;3.37;;;9.80;99.90;;;;;;5014332;28;20246;-56
2022/10/12 07:04:43;;;;;;;10.27;3.33;;;9.80;99.90;;;;;;5014534;28;20242;-57
2022/10/12 07:07:12;;;;;;;11.97;3.50;;;9.80;99.90;;;;;;5022514;28;20264;-57
2022/10/12 07:09:40;;;;;;;9.07;3.30;;;9.90;99.90;;;;;;5012863;28;20238;-57
2022/10/12 07:12:08;;;;;;;8.77;3.17;;;10.00;99.90;;;;;;5014560;28;20279;-57
2022/10/12 07:14:36;;;;;;;10.67;3.47;;;10.20;99.90;;;;;;5014691;28;20218;-57
2022/10/12 07:17:04;;;;;;;8.33;3.67;;;10.20;99.90;;;;;;5019983;28;20233;-57
2022/10/12 07:19:32;;;;;;;8.03;3.47;;;10.40;99.90;;;;;;5019367;28;20241;-57
2022/10/12 07:22:01;;;;;;;9.77;3.20;;;10.60;99.90;;;;;;5015410;28;20238;-57
2022/10/12 07:24:35;;;;;;;8.27;3.60;;;10.60;99.90;;;;;;5014986;28;20242;-57
2022/10/12 07:27:04;;;;;;;11.67;3.67;;;10.80;99.90;;;;;;5015145;28;20264;-57
2022/10/12 07:29:32;;;;;;;7.87;3.30;;;10.90;99.90;;;;;;5010043;28;20633;-57
2022/10/12 07:32:01;;;;;;;8.77;3.20;;;11.00;99.90;;;;;;5014709;28;20246;-56
2022/10/12 07:34:29;;;;;;;6.93;2.80;;;11.20;99.90;;;;;;5015058;28;20710;-57
2022/10/12 07:36:57;;;;;;;11.10;3.37;;;11.40;99.90;;;;;;5018396;28;20223;-57
2022/10/12 07:39:27;;;;;;;11.40;3.97;;;11.50;99.90;;;;;;5010895;28;20313;-56
2022/10/12 07:41:56;;;;;;;8.67;3.10;;;11.70;99.90;;;;;;5015652;28;20261;-57
2022/10/12 07:44:24;;;;;;;8.43;3.20;;;11.70;99.90;;;;;;5015887;28;20235;-56
2022/10/12 07:46:52;;;;;;;12.40;3.57;;;11.90;99.90;;;;;;5016520;28;20255;-57
2022/10/12 07:49:21;;;;;;;9.80;3.67;;;12.10;99.90;;;;;;5018909;28;20235;-57
2022/10/12 07:51:49;;;;;;;7.57;3.43;;;12.20;99.90;;;;;;5015312;28;20239;-57
2022/10/12 07:54:17;;;;;;;6.00;3.03;;;12.30;99.90;;;;;;5014925;28;20231;-57
2022/10/12 07:56:49;;;;;;;10.30;3.70;;;12.40;99.90;;;;;;5018220;28;20227;-57
2022/10/12 07:59:19;;;;;;;10.67;3.70;;;12.40;99.90;;;;;;5013975;28;20290;-57
2022/10/12 08:01:47;;;;;;;9.57;3.93;;;12.50;99.90;;;;;;5013401;28;20720;-57
2022/10/12 08:04:15;;;;;;;9.70;3.67;;;12.50;99.90;;;;;;5013824;28;20220;-57
2022/10/12 08:06:43;;;;;;;7.93;3.43;;;12.70;99.90;;;;;;5018882;28;20608;-57
2022/10/12 08:09:11;;;;;;;8.37;3.27;;;12.90;99.90;;;;;;5010028;28;20220;-58
2022/10/12 08:11:41;;;;;;;9.87;3.23;;;13.10;99.90;;;;;;5006612;28;20226;-57
2022/10/12 08:14:13;;;;;;;10.03;3.70;;;13.20;99.90;;;;;;5004619;28;20243;-58
2022/10/12 08:16:44;;;;;;;10.17;3.50;;;13.20;99.90;;;;;;5017493;28;20228;-58
2022/10/12 08:19:12;;;;;;;13.33;4.43;;;13.30;99.90;;;;;;5006990;28;20238;-58
2022/10/12 08:21:41;;;;;;;9.23;3.20;;;13.40;99.90;;;;;;5013959;28;20694;-58
2022/10/12 08:24:09;;;;;;;8.50;3.13;;;13.60;99.90;;;;;;5013728;28;20692;-58
2022/10/12 08:26:38;;;;;;;6.63;2.97;;;13.80;99.90;;;;;;5013529;28;20810;-58
2022/10/12 08:29:07;;;;;;;9.27;3.07;;;14.00;99.90;;;;;;5013057;28;20294;-58
2022/10/12 08:31:36;;;;;;;10.80;3.13;;;14.20;99.90;;;;;;5013129;28;20651;-57
2022/10/12 08:34:05;;;;;;;8.17;3.37;;;14.40;99.90;;;;;;5014701;28;20236;-58
2022/10/12 08:36:34;;;;;;;10.47;3.63;;;14.60;99.90;;;;;;5017081;28;20239;-58
2022/10/12 08:39:05;;;;;;;8.77;3.10;;;14.70;99.90;;;;;;5022549;28;20622;-58
2022/10/12 08:41:46;;;;;;;8.37;2.97;;;14.90;99.90;;;;;;5014398;28;20231;-58
2022/10/12 08:44:34;;;;;;;9.07;3.33;;;15.10;99.90;;;;;;5009096;28;20234;-57
2022/10/12 08:47:09;;;;;;;11.10;3.23;;;15.30;99.90;;;;;;5011524;28;20236;-58
2022/10/12 08:49:40;;;;;;;8.63;3.43;;;15.50;99.90;;;;;;5026018;28;20220;-58
2022/10/12 08:52:27;;;;;;;8.27;3.17;;;15.50;99.90;;;;;;5020179;28;20267;-58
2022/10/12 08:54:59;;;;;;;9.57;3.37;;;15.60;99.90;;;;;;5019658;28;20229;-58
2022/10/12 08:57:27;;;;;;;9.30;3.10;;;15.80;99.90;;;;;;5023129;28;20228;-58
2022/10/12 08:59:55;;;;;;;7.77;2.80;;;15.90;99.90;;;;;;5018354;28;20232;-58
2022/10/12 09:02:44;;;;;;;8.67;2.97;;;16.00;99.90;;;;;;4998530;28;20257;-58
2022/10/12 09:05:21;;;;;;;9.03;2.80;;;16.20;99.90;;;;;;4991782;28;20222;-58
2022/10/12 09:07:55;;;;;;;9.23;3.13;;;16.40;99.90;;;;;;5004676;28;20221;-58
2022/10/12 09:10:33;;;;;;;11.17;3.37;;;16.50;99.90;;;;;;5004528;28;20237;-58
2022/10/12 09:13:11;;;;;;;7.87;2.53;;;16.50;99.90;;;;;;5000553;28;20241;-58
2022/10/12 09:15:49;;;;;;;9.17;3.13;;;16.60;99.90;;;;;;5000529;28;20233;-58
2022/10/12 09:18:21;;;;;;;11.87;3.40;;;16.70;99.90;;;;;;5002755;28;20233;-58
2022/10/12 09:20:52;;;;;;;9.17;3.00;;;16.80;99.90;;;;;;4998610;28;20252;-58
2022/10/12 09:23:25;;;;;;;8.07;2.43;;;16.90;99.90;;;;;;5001695;28;20257;-58
2022/10/12 09:25:56;;;;;;;9.10;2.67;;;17.00;99.90;;;;;;5004636;28;20225;-58
2022/10/12 09:28:30;;;;;;;11.70;3.10;;;17.10;99.90;;;;;;5007477;28;20233;-57
2022/10/12 09:31:09;;;;;;;13.17;3.87;;;17.20;99.90;;;;;;5009187;28;20259;-58
2022/10/12 09:33:41;;;;;;;13.37;3.50;;;17.10;99.90;;;;;;5010302;28;20237;-58
2022/10/12 09:36:16;;;;;;;7.90;2.77;;;17.30;99.90;;;;;;5014566;28;20233;-58
2022/10/12 09:38:44;;;;;;;9.67;3.10;;;17.30;99.90;;;;;;5022889;28;20244;-58
2022/10/12 09:41:19;;;;;;;8.13;2.83;;;17.20;99.90;;;;;;5027920;28;20226;-58
2022/10/12 09:43:49;;;;;;;8.50;2.67;;;17.10;99.90;;;;;;5028362;28;20236;-58
2022/10/12 09:46:22;;;;;;;9.57;2.70;;;17.10;99.90;;;;;;5027626;28;20307;-58
2022/10/12 09:48:57;;;;;;;11.03;2.97;;;17.10;99.90;;;;;;5027539;28;20222;-58
2022/10/12 09:51:28;;;;;;;9.87;2.83;;;17.10;99.90;;;;;;5029984;28;20228;-59
2022/10/12 09:54:01;;;;;;;6.43;2.23;;;17.20;99.90;;;;;;5029840;28;20229;-59
2022/10/12 09:56:38;;;;;;;7.90;2.63;;;17.30;99.90;;;;;;5028314;28;20230;-58
2022/10/12 09:59:17;;;;;;;11.17;3.00;;;17.40;99.90;;;;;;5026107;28;20252;-58
2022/10/12 10:01:58;;;;;;;9.27;3.10;;;17.40;99.90;;;;;;5019889;28;20233;-58
2022/10/12 10:04:28;;;;;;;11.27;2.90;;;17.40;99.90;;;;;;5010805;28;20760;-58
2022/10/12 10:07:13;;;;;;;9.07;3.10;;;17.50;99.90;;;;;;5013764;28;20235;-58
2022/10/12 10:09:41;;;;;;;8.77;2.80;;;17.60;99.90;;;;;;5005607;28;20226;-58
2022/10/12 10:12:14;;;;;;;9.27;2.50;;;17.70;99.90;;;;;;5006579;28;20226;-58
2022/10/12 10:14:44;;;;;;;12.33;2.60;;;17.30;99.90;;;;;;5006132;28;20237;-58
2022/10/12 10:17:15;;;;;;;8.67;2.33;;;17.30;99.90;;;;;;5006933;28;20706;-58
2022/10/12 10:19:50;;;;;;;8.37;2.80;;;17.40;99.90;;;;;;5007731;28;20238;-59
2022/10/12 10:22:20;;;;;;;9.97;2.33;;;17.40;99.90;;;;;;5007269;28;20232;-58
2022/10/12 10:24:51;;;;;;;8.00;2.20;;;17.40;99.90;;;;;;5007096;28;20234;-59
2022/10/12 10:27:35;;;;;;;9.37;2.40;;;17.40;99.90;;;;;;5012985;28;20599;-57
2022/10/12 10:30:20;;;;;;;9.30;2.40;;;17.10;99.90;;;;;;5011010;28;20281;-58
2022/10/12 10:33:13;;;;;;;7.60;2.23;;;17.20;99.90;;;;;;5034216;28;20251;-58
2022/10/12 10:35:51;;;;;;;11.20;3.00;;;17.50;99.90;;;;;;5036507;28;20257;-58
2022/10/12 10:38:21;;;;;;;11.33;2.73;;;17.80;99.90;;;;;;5028254;28;20225;-58
2022/10/12 10:40:51;;;;;;;8.97;2.43;;;17.90;99.90;;;;;;5029877;28;20243;-58
2022/10/12 10:43:24;;;;;;;7.30;2.10;;;17.70;99.90;;;;;;5034008;28;20226;-58
2022/10/12 10:45:56;;;;;;;8.93;2.47;;;17.90;99.90;;;;;;5035304;28;20710;-58
2022/10/12 10:48:28;;;;;;;11.37;2.40;;;18.20;99.90;;;;;;5035024;28;20287;-58
2022/10/12 10:51:00;;;;;;;8.40;2.00;;;18.30;99.90;;;;;;5030813;28;20218;-58
2022/10/12 10:53:32;;;;;;;8.80;2.40;;;18.40;99.90;;;;;;5038520;28;20747;-58
2022/10/12 10:56:05;;;;;;;8.23;2.07;;;18.20;99.90;;;;;;5033854;28;20265;-58
2022/10/12 10:58:36;;;;;;;9.00;2.60;;;18.10;99.90;;;;;;5036510;28;20219;-58
2022/10/12 11:01:14;;;;;;;6.97;2.00;;;18.20;99.90;;;;;;5032586;28;20239;-58
2022/10/12 11:03:51;;;;;;;7.70;1.77;;;18.40;99.90;;;;;;5033526;28;20231;-58
2022/10/12 11:06:36;;;;;;;7.80;2.40;;;18.50;99.90;;;;;;5033955;28;20240;-57
2022/10/12 11:09:11;;;;;;;5.77;1.93;;;18.60;99.90;;;;;;5030789;28;20237;-58
2022/10/12 11:11:40;;;;;;;7.73;2.17;;;18.80;99.90;;;;;;5034481;28;20224;-58
2022/10/12 11:14:14;;;;;;;7.73;2.03;;;18.90;99.90;;;;;;5035720;28;20314;-58
2022/10/12 11:16:46;;;;;;;9.50;2.40;;;19.00;99.90;;;;;;5032259;28;20225;-58
2022/10/12 11:19:29;;;;;;;9.70;2.30;;;19.10;99.90;;;;;;5032375;28;20620;-58
2022/10/12 11:22:02;;;;;;;8.60;2.80;;;19.00;99.90;;;;;;5032395;28;20219;-58
2022/10/12 11:24:35;;;;;;;8.03;3.10;;;19.00;99.90;;;;;;5032579;28;20239;-58
2022/10/12 11:27:07;;;;;;;9.27;3.47;;;18.70;99.90;;;;;;5031477;28;20273;-59
2022/10/12 11:29:37;;;;;;;7.33;2.20;;;18.60;99.90;;;;;;5021165;28;20222;-59
2022/10/12 11:32:13;;;;;;;10.23;2.50;;;18.80;99.90;;;;;;5023058;28;20232;-58
2022/10/12 11:34:49;;;;;;;9.03;2.53;;;18.90;99.90;;;;;;5032061;28;20224;-58
2022/10/12 11:37:23;;;;;;;9.40;2.47;;;18.50;99.90;;;;;;5030150;28;20261;-58
2022/10/12 11:39:54;;;;;;;10.50;3.77;;;18.10;99.90;;;;;;5029701;28;20228;-58
2022/10/12 11:42:30;;;;;;;6.47;2.70;;;17.90;99.90;;;;;;5021718;28;20227;-58
2022/10/12 11:45:01;;;;;;;8.50;2.60;;;17.90;99.90;;;;;;5026866;28;20242;-58
2022/10/12 11:47:37;;;;;;;9.30;2.07;;;17.80;99.90;;;;;;5032147;28;20628;-59
2022/10/12 11:50:25;;;;;;;7.53;2.50;;;17.90;99.90;;;;;;5031378;28;20229;-58
2022/10/12 11:52:55;;;;;;;7.13;2.17;;;18.00;99.90;;;;;;5030183;28;20226;-58
2022/10/12 11:55:38;;;;;;;7.17;2.57;;;18.10;99.90;;;;;;5017040;28;20230;-58
2022/10/12 11:58:12;;;;;;;10.93;2.50;;;18.00;99.90;;;;;;5027154;28;20226;-58
2022/10/12 12:00:54;;;;;;;8.63;2.23;;;18.00;99.90;;;;;;5031347;28;20649;-58
2022/10/12 12:03:30;;;;;;;7.70;1.90;;;18.00;99.90;;;;;;5031934;28;20695;-59
2022/10/12 12:06:39;;;;;;;7.17;1.83;;;17.90;99.90;;;;;;5029403;28;20237;-59
2022/10/12 12:09:38;;;;;;;9.00;1.57;;;17.80;99.90;;;;;;5032259;28;20229;-59
2022/10/12 12:12:17;;;;;;;7.90;1.80;;;18.00;99.90;;;;;;5034558;28;20248;-58
2022/10/12 12:14:58;;;;;;;6.77;1.60;;;18.00;99.90;;;;;;5040286;28;20218;-58
2022/10/12 12:17:28;;;;;;;9.17;2.10;;;18.00;99.90;;;;;;5030415;28;20240;-57
2022/10/12 12:20:00;;;;;;;4.77;1.70;;;17.90;99.90;;;;;;5026038;28;20236;-59
2022/10/12 12:22:46;;;;;;;8.30;2.37;;;17.70;99.90;;;;;;5031153;28;20217;-58
2022/10/12 12:25:18;;;;;;;6.20;1.63;;;17.80;99.90;;;;;;5040575;28;20226;-57
2022/10/12 12:27:50;;;;;;;8.40;2.30;;;17.70;99.90;;;;;;5034229;28;20775;-57
2022/10/12 12:30:33;;;;;;;5.13;1.40;;;17.80;99.90;;;;;;5037204;28;20582;-58
2022/10/12 12:33:04;;;;;;;5.57;1.90;;;17.80;99.90;;;;;;5031579;28;20237;-58
2022/10/12 12:35:38;;;;;;;6.97;2.03;;;17.60;99.90;;;;;;5039916;28;20223;-58
2022/10/12 12:38:29;;;;;;;6.20;1.60;;;17.60;99.90;;;;;;5028273;28;20230;-58
2022/10/12 12:41:09;;;;;;;7.23;1.70;;;17.60;99.90;;;;;;5025895;28;20257;-59
2022/10/12 12:43:53;;;;;;;6.73;2.07;;;17.70;99.90;;;;;;5026679;28;20629;-58
2022/10/12 12:46:24;;;;;;;7.53;2.30;;;17.80;99.90;;;;;;5023489;28;20226;-57
2022/10/12 12:49:01;;;;;;;5.67;3.07;;;17.70;99.90;;;;;;5019782;28;20226;-58
2022/10/12 12:51:42;;;;;;;7.37;2.50;;;17.60;99.90;;;;;;5021317;28;20241;-58
2022/10/12 12:54:18;;;;;;;10.07;2.37;;;17.60;99.90;;;;;;5030195;28;20233;-58
2022/10/12 12:57:06;;;;;;;5.57;2.00;;;17.60;99.90;;;;;;5029056;28;20267;-58
2022/10/12 13:00:10;;;;;;;4.57;1.60;;;17.60;99.90;;;;;;5026552;28;20221;-59
2022/10/12 13:03:02;;;;;;;6.47;1.67;;;17.60;99.90;;;;;;5007786;28;20235;-58
2022/10/12 13:06:02;;;;;;;7.50;2.27;;;17.70;99.90;;;;;;5008378;28;20237;-59
2022/10/12 13:08:43;;;;;;;5.70;1.80;;;17.70;99.90;;;;;;5014100;28;20223;-58
2022/10/12 13:11:44;;;;;;;6.67;1.87;;;17.60;99.90;;;;;;5012706;28;20292;-59
2022/10/12 13:14:26;;;;;;;6.03;1.77;;;17.50;99.90;;;;;;4999547;28;20225;-59